KAKR/AKR METAR and TAF weather

Enter ICAO airport designator
Station Type Date Time Source
KAKR METAR 2021/04/13 22:54 UTC NOAA

KAKR 132254Z AUTO 27006KT 10SM CLR 19/04 A3004 RMK AO2 SLP170 T01940039


Station Type Date Time Source
KAKR Decoded METAR 2021/04/13 22:54 UTC NOAA

AKRON FULTON INTERNATIONAL, OH, United States (KAKR) 41-02N 081-28W 363M
Apr 13, 2021 - 06:54 PM EDT / 2021.04.13 2254 UTC
Wind: from the W (270 degrees) at 7 MPH (6 KT):0
Visibility: 10 mile(s):0
Sky conditions: clear
Temperature: 66.9 F (19.4 C)
Dew Point: 39.0 F (3.9 C)
Relative Humidity: 35%
Pressure (altimeter): 30.04 in. Hg (1017 hPa)
ob: KAKR 132254Z AUTO 27006KT 10SM CLR 19/04 A3004 RMK AO2 SLP170 T01940039
cycle: 23

Station Type Date Time Source
KAKR TAF UTC NOAA

Error!

Example: see airport list